Time;durP1;ratioP1;P1;durP2;ratioP2;P2;SDS_P1;SDS_P2;PMS_P1;PMS_P2;Temp;Humidity;BMP_temperature;BMP_pressure;BME280_temperature;BME280_humidity;BME280_pressure;Samples;Min_cycle;Max_cycle;Signal;HPM_P1;HPM_P2
2023/07/31 00:01:30;;;;;;;25.00;8.13;;;;;;;-145.18;100.00;46627.19;5033505;28;20508;-69
2023/07/31 00:03:55;;;;;;;25.43;7.67;;;;;;;-145.18;100.00;46660.41;5033085;28;20530;-70
2023/07/31 00:06:21;;;;;;;24.30;6.97;;;;;;;-145.18;100.00;46660.41;5032873;28;20033;-70
2023/07/31 00:08:46;;;;;;;25.50;7.50;;;;;;;-145.18;100.00;46633.06;5015209;28;20044;-69
2023/07/31 00:11:11;;;;;;;26.97;7.47;;;;;;;-145.18;100.00;46660.41;5032239;28;20384;-70
2023/07/31 00:13:37;;;;;;;30.03;8.23;;;;;;;-145.18;100.00;46631.09;5033104;28;20080;-70
2023/07/31 00:16:02;;;;;;;16.47;5.90;;;;;;;-145.18;100.00;46629.13;5032915;28;20029;-69
2023/07/31 00:18:27;;;;;;;32.23;8.10;;;;;;;-145.18;100.00;46660.41;5033094;28;20060;-69
2023/07/31 00:20:53;;;;;;;28.10;8.30;;;;;;;-145.18;100.00;46660.41;5032484;28;20185;-70
2023/07/31 00:23:18;;;;;;;22.10;6.80;;;;;;;-145.18;100.00;46635.00;5032955;28;20044;-70
2023/07/31 00:25:43;;;;;;;24.63;6.87;;;;;;;-145.18;100.00;46631.09;5032777;28;20099;-69
2023/07/31 00:28:09;;;;;;;23.30;7.03;;;;;;;-145.18;100.00;46631.09;5015254;28;20033;-70
2023/07/31 00:30:35;;;;;;;22.90;6.63;;;;;;;-145.18;100.00;46629.13;5031213;28;20079;-70
2023/07/31 00:33:00;;;;;;;22.97;7.07;;;;;;;-145.18;100.00;46635.00;5032931;28;20625;-70
2023/07/31 00:35:26;;;;;;;21.20;6.47;;;;;;;-145.18;100.00;46631.09;5032567;28;20040;-70
2023/07/31 00:37:51;;;;;;;21.97;6.53;;;;;;;-145.18;100.00;46635.00;5032494;28;20047;-70
2023/07/31 00:40:16;;;;;;;25.07;6.77;;;;;;;-145.18;100.00;46633.06;5031311;28;20059;-70
2023/07/31 00:42:42;;;;;;;22.23;6.43;;;;;;;-145.18;100.00;46635.00;5032764;28;20087;-70
2023/07/31 00:45:07;;;;;;;17.83;6.00;;;;;;;-145.18;100.00;46660.41;5032585;28;20473;-70
2023/07/31 00:47:33;;;;;;;19.50;6.43;;;;;;;-145.18;100.00;46635.00;5030668;28;20087;-69
2023/07/31 00:49:58;;;;;;;20.57;6.30;;;;;;;-145.18;100.00;46636.94;5032427;28;20036;-70
2023/07/31 00:52:24;;;;;;;22.70;6.33;;;;;;;-145.18;100.00;46638.91;5030676;28;20122;-70
2023/07/31 00:54:50;;;;;;;24.00;6.23;;;;;;;-145.18;100.00;46635.00;5032021;28;20040;-70
2023/07/31 00:57:15;;;;;;;23.00;6.40;;;;;;;-145.18;100.00;46635.00;5032410;28;20033;-70
2023/07/31 00:59:41;;;;;;;19.50;6.33;;;;;;;-145.18;100.00;46636.94;5032190;28;20377;-70
2023/07/31 01:02:06;;;;;;;23.10;6.30;;;;;;;-145.18;100.00;46635.00;5030715;28;20029;-70
2023/07/31 01:04:32;;;;;;;16.53;6.03;;;;;;;-145.18;100.00;46635.00;5031716;28;20508;-70
2023/07/31 01:07:25;;;;;;;20.83;5.93;;;;;;;-145.18;100.00;46640.88;5032215;28;20393;-70
2023/07/31 01:10:00;;;;;;;24.70;7.40;;;;;;;-145.18;100.00;46640.88;5020693;28;20033;-70
2023/07/31 01:12:27;;;;;;;;;;;;;;;-145.18;100.00;46640.88;5032359;28;20095;-70
2023/07/31 01:15:06;;;;;;;20.90;5.73;;;;;;;-145.18;100.00;46644.78;5032024;28;20003;-70
2023/07/31 01:17:31;;;;;;;24.50;5.80;;;;;;;-145.18;100.00;46640.88;5044597;28;20028;-70
2023/07/31 01:20:01;;;;;;;15.77;5.33;;;;;;;-145.18;100.00;46636.94;5032124;28;20053;-70
2023/07/31 01:22:59;;;;;;;22.47;5.60;;;;;;;-145.18;100.00;46636.94;5043846;28;20071;-70
2023/07/31 01:25:47;;;;;;;18.10;5.43;;;;;;;-145.18;100.00;46638.91;5026860;28;20037;-70
2023/07/31 01:28:40;;;;;;;17.13;5.57;;;;;;;-145.18;100.00;46640.88;5031762;28;20091;-70
2023/07/31 01:31:10;;;;;;;13.13;5.10;;;;;;;-145.18;100.00;46642.81;5021303;28;20025;-70
2023/07/31 01:33:37;;;;;;;18.27;4.77;;;;;;;-145.18;100.00;46642.81;5031466;28;20131;-70
2023/07/31 01:36:02;;;;;;;32.67;4.93;;;;;;;-145.18;100.00;46642.81;5042132;28;20392;-70
2023/07/31 01:38:28;;;;;;;15.57;4.80;;;;;;;-145.18;100.00;46644.78;5031446;28;20489;-70
2023/07/31 01:40:53;;;;;;;16.53;5.03;;;;;;;-145.18;100.00;46644.78;5014013;28;20040;-70
2023/07/31 01:43:19;;;;;;;15.43;4.37;;;;;;;-145.18;100.00;46642.81;5031635;28;20148;-64
2023/07/31 01:45:45;;;;;;;14.10;4.73;;;;;;;-145.18;100.00;46642.81;5031742;28;20025;-64
2023/07/31 01:48:10;;;;;;;14.50;4.77;;;;;;;-145.18;100.00;46644.78;5031145;28;20047;-63
2023/07/31 01:50:35;;;;;;;13.90;4.33;;;;;;;-145.18;100.00;46638.91;5031529;28;20029;-64
2023/07/31 01:53:01;;;;;;;16.13;4.93;;;;;;;-145.18;100.00;46648.69;5030098;28;20047;-63
2023/07/31 01:55:26;;;;;;;18.10;4.87;;;;;;;-145.18;100.00;46650.63;5031485;28;20036;-63
2023/07/31 01:57:52;;;;;;;17.43;5.03;;;;;;;-145.18;100.00;46642.81;5013331;28;20029;-64
2023/07/31 02:00:17;;;;;;;17.17;5.37;;;;;;;-145.18;100.00;46646.72;5031619;28;20029;-64
2023/07/31 02:02:43;;;;;;;20.20;5.70;;;;;;;-145.18;100.00;46646.72;5031131;28;20064;-63
2023/07/31 02:05:08;;;;;;;17.23;5.40;;;;;;;-145.18;100.00;46644.78;5031164;28;20073;-64
2023/07/31 02:07:34;;;;;;;15.13;5.80;;;;;;;-145.18;100.00;46646.72;5031421;28;20112;-64
2023/07/31 02:09:59;;;;;;;18.80;5.60;;;;;;;-145.18;100.00;46646.72;5031320;28;20476;-64
2023/07/31 02:12:25;;;;;;;29.07;5.77;;;;;;;-145.18;100.00;46652.59;5031006;28;20116;-64
2023/07/31 02:14:50;;;;;;;17.63;5.47;;;;;;;-145.18;100.00;46646.72;5014023;28;20042;-64
2023/07/31 02:17:15;;;;;;;14.07;5.93;;;;;;;-145.18;100.00;46642.81;5030994;28;20488;-63
2023/07/31 02:19:41;;;;;;;23.13;5.80;;;;;;;-145.18;100.00;46650.63;5029810;28;20040;-63
2023/07/31 02:22:06;;;;;;;19.63;5.00;;;;;;;-145.18;100.00;46644.78;5031157;28;20082;-64
2023/07/31 02:24:31;;;;;;;20.33;5.03;;;;;;;-145.18;100.00;46644.78;5031278;28;20366;-63
2023/07/31 02:26:57;;;;;;;20.23;5.90;;;;;;;-145.18;100.00;46648.69;5044351;28;20108;-64
2023/07/31 02:29:22;;;;;;;12.73;4.87;;;;;;;-145.18;100.00;46646.72;5013192;28;20037;-63
2023/07/31 02:31:48;;;;;;;19.53;5.77;;;;;;;-145.18;100.00;46654.53;5031300;28;20029;-63
2023/07/31 02:34:13;;;;;;;14.00;5.07;;;;;;;-145.18;100.00;46650.63;5013828;28;20128;-64
2023/07/31 02:36:38;;;;;;;18.73;5.67;;;;;;;-145.18;100.00;46654.53;5034353;28;20034;-64
2023/07/31 02:39:04;;;;;;;15.63;6.20;;;;;;;-145.18;100.00;46648.69;5016784;28;20025;-63
2023/07/31 02:41:29;;;;;;;13.93;5.13;;;;;;;-145.18;100.00;46650.63;5034595;28;20556;-63
2023/07/31 02:43:54;;;;;;;16.13;5.53;;;;;;;-145.18;100.00;46654.53;5011464;28;20092;-63
2023/07/31 02:46:20;;;;;;;22.57;5.63;;;;;;;-145.18;100.00;46656.50;5034145;28;20502;-63
2023/07/31 02:48:45;;;;;;;17.33;5.90;;;;;;;-145.18;100.00;46652.59;5034198;28;20735;-63
2023/07/31 02:51:11;;;;;;;17.33;5.27;;;;;;;-145.18;100.00;46650.63;5016411;28;20049;-63
2023/07/31 02:53:36;;;;;;;15.37;5.17;;;;;;;-145.18;100.00;46656.50;5034476;28;20543;-69
2023/07/31 02:56:01;;;;;;;17.00;5.07;;;;;;;-145.18;100.00;46652.59;5034701;28;20120;-69
2023/07/31 02:58:27;;;;;;;17.53;4.53;;;;;;;-145.18;100.00;46658.44;5034370;28;20052;-69
2023/07/31 03:00:52;;;;;;;12.60;5.17;;;;;;;-145.18;100.00;46658.44;5034019;28;20048;-69
2023/07/31 03:03:17;;;;;;;17.57;5.50;;;;;;;-145.18;100.00;46652.59;5016415;28;20026;-69
2023/07/31 03:05:43;;;;;;;15.93;5.13;;;;;;;-145.18;100.00;46654.53;5033353;28;20477;-69
2023/07/31 03:08:08;;;;;;;16.10;5.00;;;;;;;-145.18;100.00;46662.34;5034252;28;20230;-69
2023/07/31 03:10:33;;;;;;;17.67;4.30;;;;;;;-145.18;100.00;46654.53;5036918;28;20456;-69
2023/07/31 03:12:59;;;;;;;15.93;5.27;;;;;;;-145.18;100.00;46656.50;5053781;28;20032;-69
2023/07/31 03:15:24;;;;;;;16.90;5.40;;;;;;;-145.18;100.00;46656.50;5051150;28;20178;-69
2023/07/31 03:17:50;;;;;;;21.73;5.20;;;;;;;-145.18;100.00;46660.41;5033611;28;20441;-69
2023/07/31 03:20:15;;;;;;;21.40;5.63;;;;;;;-145.18;100.00;46652.59;5033933;28;20017;-69
2023/07/31 03:22:40;;;;;;;17.30;5.27;;;;;;;-145.18;100.00;46662.34;5033975;28;20381;-69
2023/07/31 03:25:06;;;;;;;17.20;5.30;;;;;;;-145.18;100.00;46664.31;5034114;28;20022;-69
2023/07/31 03:27:31;;;;;;;18.17;4.63;;;;;;;-145.18;100.00;46654.53;5033853;28;20439;-69
2023/07/31 03:29:57;;;;;;;16.97;5.00;;;;;;;-145.18;100.00;46652.59;5033886;28;20103;-69
2023/07/31 03:32:22;;;;;;;25.03;6.03;;;;;;;-145.18;100.00;46656.50;5033609;28;20108;-69
2023/07/31 03:34:49;;;;;;;13.03;4.60;;;;;;;-145.18;100.00;46656.50;5033611;28;20036;-70
2023/07/31 03:37:15;;;;;;;16.67;5.47;;;;;;;-145.18;100.00;46662.34;5033722;28;20037;-69
2023/07/31 03:39:40;;;;;;;23.03;4.83;;;;;;;-145.18;100.00;46654.53;5042069;28;20380;-69
2023/07/31 03:42:06;;;;;;;15.27;4.83;;;;;;;-145.18;100.00;46656.50;5037527;28;20061;-69
2023/07/31 03:44:31;;;;;;;18.50;4.60;;;;;;;-145.18;100.00;46658.44;5033814;28;20029;-69
2023/07/31 03:46:56;;;;;;;16.90;4.63;;;;;;;-145.18;100.00;46654.53;5032951;28;20057;-69
2023/07/31 03:49:22;;;;;;;21.17;4.97;;;;;;;-145.18;100.00;46652.59;5015219;28;20029;-69
2023/07/31 03:51:47;;;;;;;16.60;5.00;;;;;;;-145.18;100.00;46654.53;5033320;28;20040;-69
2023/07/31 03:54:13;;;;;;;17.43;4.60;;;;;;;-145.18;100.00;46658.44;5033284;28;20538;-69
2023/07/31 03:56:39;;;;;;;14.80;5.13;;;;;;;-145.18;100.00;46658.44;5015806;28;20033;-69
2023/07/31 03:59:05;;;;;;;15.50;4.87;;;;;;;-145.18;100.00;46660.41;5033205;28;20021;-69
2023/07/31 04:01:30;;;;;;;16.87;5.13;;;;;;;-145.18;100.00;46656.50;5044627;28;20113;-69
2023/07/31 04:03:55;;;;;;;22.67;5.70;;;;;;;-145.18;100.00;46658.44;5033188;28;20041;-63
2023/07/31 04:06:21;;;;;;;17.80;4.80;;;;;;;-145.18;100.00;46654.53;5032680;28;20057;-63
2023/07/31 04:08:46;;;;;;;19.00;4.40;;;;;;;-145.18;100.00;46656.50;5033119;28;20026;-63
2023/07/31 04:11:12;;;;;;;15.37;5.10;;;;;;;-145.18;100.00;46654.53;5032944;28;20393;-63
2023/07/31 04:13:38;;;;;;;17.13;4.87;;;;;;;-145.18;100.00;46652.59;5033163;28;20115;-63
2023/07/31 04:16:03;;;;;;;17.63;5.03;;;;;;;-145.18;100.00;46658.44;5033105;28;20029;-63
2023/07/31 04:18:30;;;;;;;17.17;4.93;;;;;;;-145.18;100.00;46658.44;5029124;28;20320;-63
2023/07/31 04:20:56;;;;;;;16.80;4.57;;;;;;;-145.18;100.00;46658.44;5037683;28;20041;-63
2023/07/31 04:23:21;;;;;;;14.30;4.40;;;;;;;-145.18;100.00;46656.50;5021584;28;20169;-63
2023/07/31 04:25:47;;;;;;;17.27;4.30;;;;;;;-145.18;100.00;46656.50;5036462;28;20033;-63
2023/07/31 04:28:12;;;;;;;15.20;4.30;;;;;;;-145.18;100.00;46652.59;5027154;28;20029;-63
2023/07/31 04:30:37;;;;;;;11.50;4.23;;;;;;;-145.18;100.00;46656.50;5032680;28;20057;-63
2023/07/31 04:33:03;;;;;;;11.77;3.77;;;;;;;-145.18;100.00;46648.69;5028498;28;20038;-64
2023/07/31 04:35:29;;;;;;;11.93;4.83;;;;;;;-145.18;100.00;46650.63;5037114;28;20029;-64
2023/07/31 04:37:54;;;;;;;15.73;4.97;;;;;;;-145.18;100.00;46642.81;5028218;28;20385;-65
2023/07/31 04:40:21;;;;;;;9.37;4.20;;;;;;;-145.18;100.00;46646.72;5032414;28;20037;-65
2023/07/31 04:42:46;;;;;;;13.57;4.00;;;;;;;-145.18;100.00;46640.88;5032561;28;20053;-65
2023/07/31 04:45:12;;;;;;;12.60;4.30;;;;;;;-145.18;100.00;46646.72;5031681;28;20116;-65
2023/07/31 04:47:37;;;;;;;13.77;4.63;;;;;;;-145.18;100.00;46636.94;5008976;28;20034;-65
2023/07/31 04:50:03;;;;;;;17.40;4.23;;;;;;;-145.18;100.00;46644.78;5036618;28;20496;-65
2023/07/31 04:52:28;;;;;;;16.43;4.50;;;;;;;-145.18;100.00;46640.88;5034706;28;20033;-65
2023/07/31 04:54:54;;;;;;;18.93;4.50;;;;;;;-145.18;100.00;46638.91;5032006;28;20029;-65
2023/07/31 04:57:19;;;;;;;16.33;4.30;;;;;;;-145.18;100.00;46636.94;5030257;28;20037;-64
2023/07/31 04:59:44;;;;;;;16.53;4.73;;;;;;;-145.18;100.00;46636.94;5030846;28;20025;-64
2023/07/31 05:02:12;;;;;;;13.13;4.93;;;;;;;-145.18;100.00;46640.88;5032387;28;20033;-64
2023/07/31 05:04:38;;;;;;;13.23;5.00;;;;;;;-145.18;100.00;46633.06;5044844;28;20040;-64
2023/07/31 05:07:03;;;;;;;13.93;4.73;;;;;;;-145.18;100.00;46636.94;5031607;28;20443;-65
2023/07/31 05:09:29;;;;;;;16.17;5.43;;;;;;;-145.18;100.00;46636.94;5032315;28;20041;-64
2023/07/31 05:11:54;;;;;;;14.23;5.47;;;;;;;-145.18;100.00;46633.06;5032009;28;20052;-64
2023/07/31 05:14:20;;;;;;;16.13;4.97;;;;;;;-145.18;100.00;46633.06;5031727;28;20037;-64
2023/07/31 05:16:45;;;;;;;16.00;5.37;;;;;;;-145.18;100.00;46631.09;5013740;28;20026;-64
2023/07/31 05:19:11;;;;;;;16.67;5.23;;;;;;;-145.18;100.00;46635.00;5024243;28;20098;-64
2023/07/31 05:21:36;;;;;;;12.47;5.80;;;;;;;-145.18;100.00;46633.06;5031935;28;20029;-64
2023/07/31 05:24:02;;;;;;;12.60;4.73;;;;;;;-145.18;100.00;46633.06;5031942;28;20568;-64
2023/07/31 05:26:27;;;;;;;18.83;5.50;;;;;;;-145.18;100.00;46627.19;5013666;28;20556;-64
2023/07/31 05:28:52;;;;;;;17.67;5.23;;;;;;;-145.18;100.00;46631.09;5040399;28;20108;-64
2023/07/31 05:31:18;;;;;;;11.30;4.23;;;;;;;-145.18;100.00;46635.00;5032116;28;20036;-64
2023/07/31 05:33:43;;;;;;;11.20;4.40;;;;;;;-145.18;100.00;46633.06;5030632;28;20033;-64
2023/07/31 05:36:09;;;;;;;12.47;4.37;;;;;;;-145.18;100.00;46627.19;5020023;28;20025;-64
2023/07/31 05:38:34;;;;;;;13.50;4.83;;;;;;;-145.18;100.00;46629.13;5031580;28;20053;-64
2023/07/31 05:41:00;;;;;;;12.27;4.97;;;;;;;-145.18;100.00;46627.19;5030339;28;20022;-64
2023/07/31 05:43:25;;;;;;;11.90;4.53;;;;;;;-145.18;100.00;46631.09;5032028;28;20026;-64
2023/07/31 05:45:51;;;;;;;12.40;4.63;;;;;;;-145.18;100.00;46625.22;5013734;28;20033;-64
2023/07/31 05:48:16;;;;;;;11.27;4.20;;;;;;;-145.18;100.00;46629.13;5040197;28;20151;-64
2023/07/31 05:50:43;;;;;;;10.67;3.73;;;;;;;-145.18;100.00;46627.19;5032799;28;20029;-64
2023/07/31 05:53:10;;;;;;;12.17;4.20;;;;;;;-145.18;100.00;46631.09;5031159;28;20400;-64
2023/07/31 05:55:35;;;;;;;10.73;3.90;;;;;;;-145.18;100.00;46625.22;5032634;28;20032;-64
2023/07/31 05:58:01;;;;;;;9.50;4.10;;;;;;;-145.18;100.00;46627.19;5031145;28;20030;-65
2023/07/31 06:00:27;;;;;;;10.07;3.73;;;;;;;-145.18;100.00;46627.19;5013249;28;20099;-64
2023/07/31 06:02:53;;;;;;;9.93;3.73;;;;;;;-145.18;100.00;46625.22;5036775;28;20044;-64
2023/07/31 06:05:18;;;;;;;6.33;3.80;;;;;;;-145.18;100.00;46627.19;5030717;28;20045;-64
2023/07/31 06:07:43;;;;;;;12.13;4.53;;;;;;;-145.18;100.00;46629.13;5026645;28;20049;-65
2023/07/31 06:10:09;;;;;;;10.93;4.10;;;;;;;-145.18;100.00;46621.31;5000873;28;20042;-65
2023/07/31 06:12:35;;;;;;;7.90;4.00;;;;;;;-145.18;100.00;46627.19;5020720;28;20510;-64
2023/07/31 06:15:02;;;;;;;13.27;5.33;;;;;;;-145.18;100.00;46629.13;5022686;28;20041;-65
2023/07/31 06:17:28;;;;;;;6.67;4.73;;;;;;;-145.18;100.00;46629.13;5028829;28;20132;-64
2023/07/31 06:19:53;;;;;;;12.57;4.60;;;;;;;-145.18;100.00;46625.22;5032014;28;20191;-64
2023/07/31 06:22:19;;;;;;;12.90;4.60;;;;;;;-145.18;100.00;46631.09;5027428;28;20422;-69
2023/07/31 06:24:44;;;;;;;12.47;5.70;;;;;;;-145.18;100.00;46629.13;5029148;28;20036;-69
2023/07/31 06:27:10;;;;;;;14.67;5.10;;;;;;;-145.18;100.00;46627.19;5036707;28;20041;-69
2023/07/31 06:29:35;;;;;;;12.27;5.70;;;;;;;-145.18;100.00;46623.28;5026973;28;20489;-69
2023/07/31 06:32:01;;;;;;;9.73;5.30;;;;;;;-145.18;100.00;46621.31;5029853;28;20473;-69
2023/07/31 06:34:26;;;;;;;12.67;6.23;;;;;;;-145.18;100.00;46631.09;5019593;28;20061;-69
2023/07/31 06:36:52;;;;;;;12.57;5.80;;;;;;;-145.18;100.00;46625.22;5023463;28;20026;-69
2023/07/31 06:39:17;;;;;;;8.80;5.27;;;;;;;-145.18;100.00;46629.13;5023899;28;20068;-69
2023/07/31 06:41:43;;;;;;;10.23;5.27;;;;;;;-145.18;100.00;46625.22;5033616;28;20130;-69
2023/07/31 06:44:09;;;;;;;7.97;5.60;;;;;;;-145.18;100.00;46629.13;5027390;28;20083;-69
2023/07/31 06:46:35;;;;;;;11.07;5.47;;;;;;;-145.18;100.00;46627.19;5026643;28;20764;-69
2023/07/31 06:49:00;;;;;;;8.53;5.17;;;;;;;-145.18;100.00;46627.19;5035047;28;20037;-69
2023/07/31 06:51:26;;;;;;;9.87;5.70;;;;;;;-145.18;100.00;46629.13;5044418;28;20099;-69
2023/07/31 06:53:51;;;;;;;11.23;5.87;;;;;;;-145.18;100.00;46627.19;5032541;28;20033;-68
2023/07/31 06:56:16;;;;;;;9.90;5.17;;;;;;;-145.18;100.00;46629.13;5021230;28;20132;-69
2023/07/31 06:58:42;;;;;;;11.57;5.53;;;;;;;-145.18;100.00;46631.09;5035450;28;20037;-69
2023/07/31 07:01:08;;;;;;;8.80;5.13;;;;;;;-145.18;100.00;46633.06;5032195;28;20073;-69
2023/07/31 07:03:33;;;;;;;10.37;5.03;;;;;;;-145.18;100.00;46631.09;5020539;28;20105;-69
2023/07/31 07:05:59;;;;;;;9.43;5.00;;;;;;;-145.18;100.00;46629.13;5040448;28;20037;-69
2023/07/31 07:08:25;;;;;;;10.67;4.87;;;;;;;-145.18;100.00;46623.28;5033328;28;20103;-69
2023/07/31 07:10:50;;;;;;;7.83;4.83;;;;;;;-145.18;100.00;46629.13;5043580;28;20036;-69
2023/07/31 07:13:18;;;;;;;8.70;4.73;;;;;;;-145.18;100.00;46633.06;5036268;28;20052;-69
2023/07/31 07:15:43;;;;;;;10.87;4.77;;;;;;;-145.18;100.00;46633.06;5037042;28;20036;-69
2023/07/31 07:18:10;;;;;;;6.03;4.20;;;;;;;-145.18;100.00;46629.13;5039835;28;20037;-69
2023/07/31 07:20:35;;;;;;;6.80;4.47;;;;;;;-145.18;100.00;46629.13;5044291;28;20034;-69
2023/07/31 07:23:01;;;;;;;7.20;4.47;;;;;;;-145.18;100.00;46633.06;5035772;28;20060;-69
2023/07/31 07:25:27;;;;;;;9.17;4.37;;;;;;;-145.18;100.00;46636.94;5035662;28;20103;-69
2023/07/31 07:27:52;;;;;;;5.77;4.17;;;;;;;-145.18;100.00;46633.06;5042274;28;20044;-69
2023/07/31 07:30:19;;;;;;;8.53;3.77;;;;;;;-145.18;100.00;46633.06;5033355;28;20112;-69
2023/07/31 07:32:45;;;;;;;6.57;3.43;;;;;;;-145.18;100.00;46631.09;5035442;28;20040;-65
2023/07/31 07:35:11;;;;;;;8.93;4.17;;;;;;;-145.18;100.00;46633.06;5040303;28;20022;-66
2023/07/31 07:37:37;;;;;;;9.80;3.93;;;;;;;-145.18;100.00;46631.09;5029571;28;20036;-66
2023/07/31 07:40:02;;;;;;;7.63;3.63;;;;;;;-145.18;100.00;46631.09;5035227;28;20112;-66
2023/07/31 07:42:28;;;;;;;5.63;3.90;;;;;;;-145.18;100.00;46636.94;5029598;28;20040;-66
2023/07/31 07:44:54;;;;;;;7.83;3.90;;;;;;;-145.18;100.00;46631.09;5042309;28;20045;-66
2023/07/31 07:47:19;;;;;;;5.83;4.17;;;;;;;-145.18;100.00;46633.06;5021744;28;20038;-66
2023/07/31 07:49:44;;;;;;;5.57;4.57;;;;;;;-145.18;100.00;46631.09;5025886;28;20033;-66
2023/07/31 07:52:10;;;;;;;6.47;4.63;;;;;;;-145.18;100.00;46629.13;5026480;28;20069;-66
2023/07/31 07:54:35;;;;;;;8.43;5.07;;;;;;;-145.18;100.00;46627.19;5020613;28;20046;-66
2023/07/31 07:57:00;;;;;;;6.23;5.00;;;;;;;-145.18;100.00;46631.09;5041566;28;20025;-66
2023/07/31 07:59:26;;;;;;;6.73;4.60;;;;;;;-145.18;100.00;46631.09;5041582;28;20509;-66
2023/07/31 08:01:51;;;;;;;8.20;5.27;;;;;;;-145.18;100.00;46627.19;5019642;28;20032;-66
2023/07/31 08:04:17;;;;;;;5.97;4.13;;;;;;;-145.18;100.00;46627.19;5040691;28;20081;-66
2023/07/31 08:06:42;;;;;;;5.80;4.93;;;;;;;-145.18;100.00;46629.13;5033929;28;20037;-66
2023/07/31 08:09:08;;;;;;;7.00;4.80;;;;;;;-145.18;100.00;46631.09;5018262;28;20037;-66
2023/07/31 08:11:34;;;;;;;9.93;4.50;;;;;;;-145.18;100.00;46629.13;5036904;28;20096;-66
2023/07/31 08:13:59;;;;;;;5.97;4.40;;;;;;;-145.18;100.00;46625.22;5024329;28;20041;-66
2023/07/31 08:16:25;;;;;;;6.60;4.30;;;;;;;-145.18;100.00;46627.19;5031846;28;20033;-66
2023/07/31 08:18:50;;;;;;;7.40;4.70;;;;;;;-145.18;100.00;46627.19;5021571;28;20081;-66
2023/07/31 08:21:15;;;;;;;6.47;4.77;;;;;;;-145.18;100.00;46629.13;5036747;28;20520;-66
2023/07/31 08:23:41;;;;;;;6.63;4.73;;;;;;;-145.18;100.00;46625.22;5029485;28;20060;-67
2023/07/31 08:26:06;;;;;;;9.00;5.13;;;;;;;-145.18;100.00;46625.22;5036082;28;20029;-66
2023/07/31 08:28:32;;;;;;;6.90;4.87;;;;;;;-145.18;100.00;46627.19;5031752;28;20033;-66
2023/07/31 08:30:57;;;;;;;6.03;4.30;;;;;;;-145.18;100.00;46625.22;5032498;28;20116;-67
2023/07/31 08:33:23;;;;;;;6.57;4.80;;;;;;;-145.18;100.00;46627.19;5039426;28;20060;-66
2023/07/31 08:35:48;;;;;;;7.23;4.23;;;;;;;-145.18;100.00;46623.28;5032486;28;20397;-66
2023/07/31 08:38:14;;;;;;;8.57;5.17;;;;;;;-145.18;100.00;46619.38;5040083;28;20393;-66
2023/07/31 08:40:40;;;;;;;8.63;4.80;;;;;;;-145.18;100.00;46623.28;5024141;28;20112;-66
2023/07/31 08:43:05;;;;;;;8.60;4.93;;;;;;;-145.18;100.00;46625.22;5033852;28;20021;-69
2023/07/31 08:45:32;;;;;;;8.43;5.07;;;;;;;-145.18;100.00;46623.28;5036139;28;20056;-69
2023/07/31 08:47:59;;;;;;;9.73;5.60;;;;;;;-145.18;100.00;46629.13;5036721;28;20013;-69
2023/07/31 08:50:24;;;;;;;8.33;5.43;;;;;;;-145.18;100.00;46625.22;5018370;28;20037;-69
2023/07/31 08:52:51;;;;;;;8.70;5.60;;;;;;;-145.18;100.00;46625.22;5018776;28;20404;-69
2023/07/31 08:55:17;;;;;;;9.20;5.77;;;;;;;-145.18;100.00;46625.22;5032443;28;20104;-69
2023/07/31 08:57:43;;;;;;;7.53;5.27;;;;;;;-145.18;100.00;46625.22;5042498;28;20037;-69
2023/07/31 09:00:10;;;;;;;8.03;6.40;;;;;;;-145.18;100.00;46629.13;5035910;28;20438;-69
2023/07/31 09:02:51;;;;;;;10.53;6.00;;;;;;;-145.18;100.00;46629.13;5032593;28;20057;-69
2023/07/31 09:05:17;;;;;;;10.23;5.23;;;;;;;-145.18;100.00;46629.13;5021369;28;20086;-69
2023/07/31 09:07:47;;;;;;;8.67;5.50;;;;;;;-145.18;100.00;46627.19;5034139;28;20044;-69
2023/07/31 09:10:12;;;;;;;7.63;5.07;;;;;;;-145.18;100.00;46633.06;5022122;28;20025;-69
2023/07/31 09:12:39;;;;;;;10.23;6.20;;;;;;;-145.18;100.00;46631.09;5018845;28;20503;-69
2023/07/31 09:15:05;;;;;;;7.53;5.33;;;;;;;-145.18;100.00;46629.13;5021247;28;20165;-69
2023/07/31 09:17:36;;;;;;;8.13;5.47;;;;;;;-145.18;100.00;46635.00;5015573;28;20634;-69
2023/07/31 09:20:19;;;;;;;8.90;5.77;;;;;;;-145.18;100.00;46629.13;5037948;28;20365;-69
2023/07/31 09:22:45;;;;;;;8.77;5.37;;;;;;;-145.18;100.00;46638.91;5036782;28;20496;-69
2023/07/31 09:25:17;;;;;;;8.03;5.57;;;;;;;-145.18;100.00;46635.00;5034167;28;20028;-69
2023/07/31 09:27:57;;;;;;;10.83;5.27;;;;;;;-145.18;100.00;46638.91;5038965;28;20384;-69
2023/07/31 09:30:22;;;;;;;8.33;4.87;;;;;;;-145.18;100.00;46638.91;5031535;28;20080;-69
2023/07/31 09:32:49;;;;;;;9.23;4.07;;;;;;;-145.18;100.00;46640.88;5030348;28;20567;-69
2023/07/31 09:35:28;;;;;;;9.53;4.00;;;;;;;-145.18;100.00;46644.78;5030911;28;20037;-69
2023/07/31 09:37:57;;;;;;;6.17;3.40;;;;;;;-145.18;100.00;46644.78;5033073;28;20029;-69
2023/07/31 09:40:30;;;;;;;7.60;3.70;;;;;;;-145.18;100.00;46644.78;5041136;28;20024;-69
2023/07/31 09:42:58;;;;;;;7.67;3.20;;;;;;;-145.18;100.00;46644.78;5039385;28;20523;-69
2023/07/31 09:45:25;;;;;;;5.90;3.37;;;;;;;-145.18;100.00;46644.78;5036367;28;20511;-68
2023/07/31 09:47:50;;;;;;;5.37;2.80;;;;;;;-145.18;100.00;46644.78;5038692;28;20025;-68
2023/07/31 09:50:16;;;;;;;4.27;2.60;;;;;;;-145.18;100.00;46644.78;5035143;28;20030;-68
2023/07/31 09:52:41;;;;;;;5.73;3.07;;;;;;;-145.18;100.00;46644.78;5021120;28;20025;-66
2023/07/31 09:55:08;;;;;;;7.17;3.00;;;;;;;-145.18;100.00;46652.59;5035513;28;20036;-66
2023/07/31 09:57:34;;;;;;;7.83;3.03;;;;;;;-145.18;100.00;46650.63;5038127;28;20325;-66
2023/07/31 10:00:00;;;;;;;3.60;2.63;;;;;;;-145.18;100.00;46652.59;5035523;28;20026;-66
2023/07/31 10:02:27;;;;;;;7.60;2.60;;;;;;;-145.18;100.00;46648.69;5036733;28;20025;-66
2023/07/31 10:04:58;;;;;;;5.40;2.60;;;;;;;-145.18;100.00;46650.63;5046299;28;20405;-66
2023/07/31 10:07:25;;;;;;;5.27;2.67;;;;;;;-145.18;100.00;46650.63;5042181;28;20033;-66
2023/07/31 10:09:54;;;;;;;4.97;2.90;;;;;;;-145.18;100.00;46648.69;5037549;28;20029;-66
2023/07/31 10:12:22;;;;;;;4.10;2.70;;;;;;;-145.18;100.00;46650.63;5036152;28;20029;-66
2023/07/31 10:14:47;;;;;;;4.87;3.20;;;;;;;-145.18;100.00;46644.78;5031033;28;20038;-66
2023/07/31 10:17:14;;;;;;;4.17;2.60;;;;;;;-145.18;100.00;46644.78;5046369;28;20035;-66
2023/07/31 10:19:40;;;;;;;3.93;2.77;;;;;;;-145.18;100.00;46644.78;5034246;28;20036;-66
2023/07/31 10:22:07;;;;;;;4.77;3.03;;;;;;;-145.18;100.00;46640.88;5035667;28;20025;-66
2023/07/31 10:24:32;;;;;;;6.80;3.23;;;;;;;-145.18;100.00;46638.91;5045006;28;20053;-67
2023/07/31 10:27:01;;;;;;;8.03;3.10;;;;;;;-145.18;100.00;46640.88;5041736;28;20056;-66
2023/07/31 10:29:29;;;;;;;7.13;3.33;;;;;;;-145.18;100.00;46636.94;5037739;28;20037;-67
2023/07/31 10:31:57;;;;;;;5.37;2.60;;;;;;;-145.18;100.00;46638.91;5032840;28;20068;-66
2023/07/31 10:34:23;;;;;;;5.97;2.87;;;;;;;-145.18;100.00;46636.94;5041119;28;20033;-66
2023/07/31 10:36:49;;;;;;;4.93;2.60;;;;;;;-145.18;100.00;46640.88;5036045;28;20037;-67
2023/07/31 10:39:34;;;;;;;5.03;2.43;;;;;;;-145.18;100.00;46636.94;5036173;28;20040;-66
2023/07/31 10:41:59;;;;;;;4.85;2.45;;;;;;;-145.18;100.00;46640.88;5048735;28;20605;-66
2023/07/31 10:44:25;;;;;;;4.03;2.60;;;;;;;-145.18;100.00;46640.88;5005582;28;20021;-66
2023/07/31 10:46:54;;;;;;;5.80;2.83;;;;;;;-145.18;100.00;46642.81;5035371;28;20037;-66
2023/07/31 10:49:23;;;;;;;4.10;2.20;;;;;;;-145.18;100.00;46640.88;5033980;28;20029;-67
2023/07/31 10:51:48;;;;;;;8.47;2.90;;;;;;;-145.18;100.00;46642.81;5041939;28;20079;-66
2023/07/31 10:54:16;;;;;;;5.23;3.00;;;;;;;-145.18;100.00;46646.72;5031849;28;20128;-66
2023/07/31 10:56:50;;;;;;;5.27;2.20;;;;;;;-145.18;100.00;46650.63;5033425;28;20036;-66
2023/07/31 10:59:17;;;;;;;10.60;3.20;;;;;;;-145.18;100.00;46646.72;5033478;28;20033;-66
2023/07/31 11:02:02;;;;;;;5.57;2.90;;;;;;;-145.18;100.00;46650.63;5039651;28;20430;-66